sensor_id;sensor_type;location;lat;lon;timestamp;temperature;humidity
12771;DHT22;6449;47.666;9.160;2022-07-23T00:00:52;20.90;99.90
12771;DHT22;6449;47.666;9.160;2022-07-23T00:10:57;20.80;99.90
12771;DHT22;6449;47.666;9.160;2022-07-23T00:15:51;20.90;99.90
12771;DHT22;6449;47.666;9.160;2022-07-23T00:25:45;20.70;99.90
12771;DHT22;6449;47.666;9.160;2022-07-23T00:30:40;20.70;99.90
12771;DHT22;6449;47.666;9.160;2022-07-23T00:40:44;20.70;99.90
12771;DHT22;6449;47.666;9.160;2022-07-23T00:45:37;21.00;99.90
12771;DHT22;6449;47.666;9.160;2022-07-23T00:50:32;21.20;99.90
12771;DHT22;6449;47.666;9.160;2022-07-23T00:55:26;21.10;99.90
12771;DHT22;6449;47.666;9.160;2022-07-23T01:00:20;21.00;99.90
12771;DHT22;6449;47.666;9.160;2022-07-23T01:05:14;20.70;99.90
12771;DHT22;6449;47.666;9.160;2022-07-23T01:10:09;20.60;99.90
12771;DHT22;6449;47.666;9.160;2022-07-23T01:15:17;20.30;99.90
12771;DHT22;6449;47.666;9.160;2022-07-23T01:20:11;20.50;99.90
12771;DHT22;6449;47.666;9.160;2022-07-23T01:25:07;20.60;99.90
12771;DHT22;6449;47.666;9.160;2022-07-23T01:30:02;20.70;99.90
12771;DHT22;6449;47.666;9.160;2022-07-23T01:34:57;20.60;99.90
12771;DHT22;6449;47.666;9.160;2022-07-23T01:39:50;20.50;99.90
12771;DHT22;6449;47.666;9.160;2022-07-23T01:44:45;20.50;99.90
12771;DHT22;6449;47.666;9.160;2022-07-23T01:49:39;20.50;99.90
12771;DHT22;6449;47.666;9.160;2022-07-23T01:54:33;20.50;99.90
12771;DHT22;6449;47.666;9.160;2022-07-23T01:59:27;20.40;99.90
12771;DHT22;6449;47.666;9.160;2022-07-23T02:04:23;20.40;99.90
12771;DHT22;6449;47.666;9.160;2022-07-23T02:09:17;20.40;99.90
12771;DHT22;6449;47.666;9.160;2022-07-23T02:14:11;20.60;99.90
12771;DHT22;6449;47.666;9.160;2022-07-23T02:19:05;20.60;99.90
12771;DHT22;6449;47.666;9.160;2022-07-23T02:24:00;20.50;99.90
12771;DHT22;6449;47.666;9.160;2022-07-23T02:28:53;20.60;99.90
12771;DHT22;6449;47.666;9.160;2022-07-23T02:33:46;20.50;99.90
12771;DHT22;6449;47.666;9.160;2022-07-23T02:38:40;20.60;99.90
12771;DHT22;6449;47.666;9.160;2022-07-23T02:43:35;20.80;99.90
12771;DHT22;6449;47.666;9.160;2022-07-23T02:48:28;20.70;99.90
12771;DHT22;6449;47.666;9.160;2022-07-23T02:53:22;20.80;99.90
12771;DHT22;6449;47.666;9.160;2022-07-23T02:58:16;20.60;99.90
12771;DHT22;6449;47.666;9.160;2022-07-23T03:03:11;20.50;99.90
12771;DHT22;6449;47.666;9.160;2022-07-23T03:08:05;20.30;99.90
12771;DHT22;6449;47.666;9.160;2022-07-23T03:12:58;20.20;99.90
12771;DHT22;6449;47.666;9.160;2022-07-23T03:17:52;20.30;99.90
12771;DHT22;6449;47.666;9.160;2022-07-23T03:22:47;20.40;99.90
12771;DHT22;6449;47.666;9.160;2022-07-23T03:27:40;20.50;99.90
12771;DHT22;6449;47.666;9.160;2022-07-23T03:32:34;20.40;99.90
12771;DHT22;6449;47.666;9.160;2022-07-23T03:37:28;20.70;99.90
12771;DHT22;6449;47.666;9.160;2022-07-23T03:42:28;20.60;99.90
12771;DHT22;6449;47.666;9.160;2022-07-23T03:47:22;20.50;99.90
12771;DHT22;6449;47.666;9.160;2022-07-23T03:52:30;20.40;99.90
12771;DHT22;6449;47.666;9.160;2022-07-23T03:57:29;20.30;99.90
12771;DHT22;6449;47.666;9.160;2022-07-23T04:02:27;20.20;99.90
12771;DHT22;6449;47.666;9.160;2022-07-23T04:07:28;20.10;99.90
12771;DHT22;6449;47.666;9.160;2022-07-23T04:12:23;20.00;99.90
12771;DHT22;6449;47.666;9.160;2022-07-23T04:17:18;20.00;99.90
12771;DHT22;6449;47.666;9.160;2022-07-23T04:22:12;20.00;99.90
12771;DHT22;6449;47.666;9.160;2022-07-23T04:27:19;20.10;99.90
12771;DHT22;6449;47.666;9.160;2022-07-23T04:32:15;20.00;99.90
12771;DHT22;6449;47.666;9.160;2022-07-23T04:37:12;19.90;99.90
12771;DHT22;6449;47.666;9.160;2022-07-23T04:42:06;20.10;99.90
12771;DHT22;6449;47.666;9.160;2022-07-23T04:47:00;20.00;99.90
12771;DHT22;6449;47.666;9.160;2022-07-23T04:51:54;19.90;99.90
12771;DHT22;6449;47.666;9.160;2022-07-23T04:56:48;19.80;99.90
12771;DHT22;6449;47.666;9.160;2022-07-23T05:01:42;19.80;99.90
12771;DHT22;6449;47.666;9.160;2022-07-23T05:06:35;19.90;99.90
12771;DHT22;6449;47.666;9.160;2022-07-23T05:11:29;19.90;99.90
12771;DHT22;6449;47.666;9.160;2022-07-23T05:16:24;19.90;99.90
12771;DHT22;6449;47.666;9.160;2022-07-23T05:21:17;19.90;99.90
12771;DHT22;6449;47.666;9.160;2022-07-23T05:26:11;19.90;99.90
12771;DHT22;6449;47.666;9.160;2022-07-23T05:31:04;19.80;99.90
12771;DHT22;6449;47.666;9.160;2022-07-23T05:36:02;19.90;99.90
12771;DHT22;6449;47.666;9.160;2022-07-23T05:40:56;19.80;99.90
12771;DHT22;6449;47.666;9.160;2022-07-23T05:45:49;19.90;99.90
12771;DHT22;6449;47.666;9.160;2022-07-23T05:50:43;19.80;99.90
12771;DHT22;6449;47.666;9.160;2022-07-23T05:55:38;19.90;99.90
12771;DHT22;6449;47.666;9.160;2022-07-23T06:00:32;20.00;99.90
12771;DHT22;6449;47.666;9.160;2022-07-23T06:05:25;20.10;99.90
12771;DHT22;6449;47.666;9.160;2022-07-23T06:10:20;20.10;99.90
12771;DHT22;6449;47.666;9.160;2022-07-23T06:15:15;20.10;99.90
12771;DHT22;6449;47.666;9.160;2022-07-23T06:20:10;20.10;99.90
12771;DHT22;6449;47.666;9.160;2022-07-23T06:25:06;20.10;99.90
12771;DHT22;6449;47.666;9.160;2022-07-23T06:30:11;20.00;99.90
12771;DHT22;6449;47.666;9.160;2022-07-23T06:35:10;20.00;99.90
12771;DHT22;6449;47.666;9.160;2022-07-23T06:40:05;20.00;99.90
12771;DHT22;6449;47.666;9.160;2022-07-23T06:44:59;20.10;99.90
12771;DHT22;6449;47.666;9.160;2022-07-23T06:49:52;19.90;99.90
12771;DHT22;6449;47.666;9.160;2022-07-23T06:54:47;20.00;99.90
12771;DHT22;6449;47.666;9.160;2022-07-23T06:59:41;20.10;99.90
12771;DHT22;6449;47.666;9.160;2022-07-23T07:04:34;20.10;99.90
12771;DHT22;6449;47.666;9.160;2022-07-23T07:09:28;20.20;99.90
12771;DHT22;6449;47.666;9.160;2022-07-23T07:14:23;20.20;99.90
12771;DHT22;6449;47.666;9.160;2022-07-23T07:19:16;20.30;99.90
12771;DHT22;6449;47.666;9.160;2022-07-23T07:24:10;20.30;99.90
12771;DHT22;6449;47.666;9.160;2022-07-23T07:29:03;20.40;99.90
12771;DHT22;6449;47.666;9.160;2022-07-23T07:33:59;20.30;99.90
12771;DHT22;6449;47.666;9.160;2022-07-23T07:38:52;20.30;99.90
12771;DHT22;6449;47.666;9.160;2022-07-23T07:43:45;20.30;99.90
12771;DHT22;6449;47.666;9.160;2022-07-23T07:48:39;20.20;99.90
12771;DHT22;6449;47.666;9.160;2022-07-23T07:53:33;20.30;99.90
12771;DHT22;6449;47.666;9.160;2022-07-23T07:58:27;20.30;99.90
12771;DHT22;6449;47.666;9.160;2022-07-23T08:03:21;20.30;99.90
12771;DHT22;6449;47.666;9.160;2022-07-23T08:08:14;20.40;99.90
12771;DHT22;6449;47.666;9.160;2022-07-23T08:13:12;20.50;99.90
12771;DHT22;6449;47.666;9.160;2022-07-23T08:18:08;20.60;99.90
12771;DHT22;6449;47.666;9.160;2022-07-23T08:23:03;20.70;99.90
12771;DHT22;6449;47.666;9.160;2022-07-23T08:27:59;20.60;99.90
12771;DHT22;6449;47.666;9.160;2022-07-23T08:32:56;20.50;99.90
12771;DHT22;6449;47.666;9.160;2022-07-23T08:37:52;20.40;99.90
12771;DHT22;6449;47.666;9.160;2022-07-23T08:42:48;20.30;99.90
12771;DHT22;6449;47.666;9.160;2022-07-23T08:47:43;20.40;99.90
12771;DHT22;6449;47.666;9.160;2022-07-23T08:52:45;20.30;99.90
12771;DHT22;6449;47.666;9.160;2022-07-23T08:57:40;20.40;99.90
12771;DHT22;6449;47.666;9.160;2022-07-23T09:02:41;20.40;99.90
12771;DHT22;6449;47.666;9.160;2022-07-23T09:07:36;20.40;99.90
12771;DHT22;6449;47.666;9.160;2022-07-23T09:12:31;20.40;99.90
12771;DHT22;6449;47.666;9.160;2022-07-23T09:17:25;20.50;99.90
12771;DHT22;6449;47.666;9.160;2022-07-23T09:22:19;20.40;99.90
12771;DHT22;6449;47.666;9.160;2022-07-23T09:27:19;20.40;99.90
12771;DHT22;6449;47.666;9.160;2022-07-23T09:32:16;20.40;99.90
12771;DHT22;6449;47.666;9.160;2022-07-23T09:37:11;20.40;99.90
12771;DHT22;6449;47.666;9.160;2022-07-23T09:42:13;20.40;99.90
12771;DHT22;6449;47.666;9.160;2022-07-23T09:47:08;20.50;99.90
12771;DHT22;6449;47.666;9.160;2022-07-23T09:52:04;20.50;99.90
12771;DHT22;6449;47.666;9.160;2022-07-23T09:56:59;20.60;99.90
12771;DHT22;6449;47.666;9.160;2022-07-23T10:01:55;20.70;99.90
12771;DHT22;6449;47.666;9.160;2022-07-23T10:06:54;20.50;99.90
12771;DHT22;6449;47.666;9.160;2022-07-23T10:11:50;20.70;99.90
12771;DHT22;6449;47.666;9.160;2022-07-23T10:16:47;20.90;99.90
12771;DHT22;6449;47.666;9.160;2022-07-23T10:21:45;21.00;99.90
12771;DHT22;6449;47.666;9.160;2022-07-23T10:26:48;21.00;99.90
12771;DHT22;6449;47.666;9.160;2022-07-23T10:31:58;21.00;99.90
12771;DHT22;6449;47.666;9.160;2022-07-23T10:36:59;20.90;99.90
12771;DHT22;6449;47.666;9.160;2022-07-23T10:42:13;20.90;99.90
12771;DHT22;6449;47.666;9.160;2022-07-23T11:49:15;21.20;99.90
12771;DHT22;6449;47.666;9.160;2022-07-23T11:54:09;21.20;99.90
12771;DHT22;6449;47.666;9.160;2022-07-23T11:59:03;21.30;99.90
12771;DHT22;6449;47.666;9.160;2022-07-23T12:03:59;21.30;99.90
12771;DHT22;6449;47.666;9.160;2022-07-23T12:08:55;21.40;99.90
12771;DHT22;6449;47.666;9.160;2022-07-23T12:13:56;21.30;99.90
12771;DHT22;6449;47.666;9.160;2022-07-23T12:18:51;21.60;99.90
12771;DHT22;6449;47.666;9.160;2022-07-23T12:23:48;22.00;99.90
12771;DHT22;6449;47.666;9.160;2022-07-23T12:28:52;22.20;99.90
12771;DHT22;6449;47.666;9.160;2022-07-23T12:33:46;22.40;99.90
12771;DHT22;6449;47.666;9.160;2022-07-23T12:38:44;22.50;99.90
12771;DHT22;6449;47.666;9.160;2022-07-23T12:43:44;22.50;99.90
12771;DHT22;6449;47.666;9.160;2022-07-23T12:48:39;22.70;99.90
12771;DHT22;6449;47.666;9.160;2022-07-23T12:53:47;23.00;99.90
12771;DHT22;6449;47.666;9.160;2022-07-23T12:58:45;23.20;99.90
12771;DHT22;6449;47.666;9.160;2022-07-23T13:03:43;23.20;99.90
12771;DHT22;6449;47.666;9.160;2022-07-23T13:08:39;23.30;99.90
12771;DHT22;6449;47.666;9.160;2022-07-23T13:13:35;23.40;99.90
12771;DHT22;6449;47.666;9.160;2022-07-23T13:18:31;23.40;99.90
12771;DHT22;6449;47.666;9.160;2022-07-23T13:23:28;23.30;99.90
12771;DHT22;6449;47.666;9.160;2022-07-23T13:28:23;23.20;99.90
12771;DHT22;6449;47.666;9.160;2022-07-23T13:33:19;23.10;99.90
12771;DHT22;6449;47.666;9.160;2022-07-23T13:38:16;23.20;99.90
12771;DHT22;6449;47.666;9.160;2022-07-23T13:43:12;23.10;99.90
12771;DHT22;6449;47.666;9.160;2022-07-23T13:48:14;23.20;99.90
12771;DHT22;6449;47.666;9.160;2022-07-23T13:53:12;23.20;99.90
12771;DHT22;6449;47.666;9.160;2022-07-23T13:58:10;23.10;99.90
12771;DHT22;6449;47.666;9.160;2022-07-23T14:03:05;23.30;99.90
12771;DHT22;6449;47.666;9.160;2022-07-23T15:29:34;23.70;99.90
12771;DHT22;6449;47.666;9.160;2022-07-23T15:51:01;23.60;99.90
12771;DHT22;6449;47.666;9.160;2022-07-23T16:01:17;23.40;99.90
12771;DHT22;6449;47.666;9.160;2022-07-23T16:11:38;23.50;99.90
12771;DHT22;6449;47.666;9.160;2022-07-23T16:16:33;23.50;99.90
12771;DHT22;6449;47.666;9.160;2022-07-23T16:21:32;23.40;99.90
12771;DHT22;6449;47.666;9.160;2022-07-23T16:26:53;23.40;99.90
12771;DHT22;6449;47.666;9.160;2022-07-23T16:31:56;23.30;99.90
12771;DHT22;6449;47.666;9.160;2022-07-23T16:52:32;23.50;99.90
12771;DHT22;6449;47.666;9.160;2022-07-23T16:57:45;23.50;99.90
12771;DHT22;6449;47.666;9.160;2022-07-23T17:23:45;23.60;99.90
12771;DHT22;6449;47.666;9.160;2022-07-23T17:28:43;23.50;99.90
12771;DHT22;6449;47.666;9.160;2022-07-23T17:33:37;23.50;99.90
12771;DHT22;6449;47.666;9.160;2022-07-23T17:38:32;23.50;99.90
12771;DHT22;6449;47.666;9.160;2022-07-23T17:43:30;23.40;99.90
12771;DHT22;6449;47.666;9.160;2022-07-23T17:48:52;23.30;99.90
12771;DHT22;6449;47.666;9.160;2022-07-23T17:53:51;23.30;99.90
12771;DHT22;6449;47.666;9.160;2022-07-23T17:58:46;23.30;99.90
12771;DHT22;6449;47.666;9.160;2022-07-23T18:03:40;23.30;99.90
12771;DHT22;6449;47.666;9.160;2022-07-23T18:08:35;23.20;99.90
12771;DHT22;6449;47.666;9.160;2022-07-23T18:13:30;23.10;99.90
12771;DHT22;6449;47.666;9.160;2022-07-23T18:18:26;23.00;99.90
12771;DHT22;6449;47.666;9.160;2022-07-23T18:23:20;22.90;99.90
12771;DHT22;6449;47.666;9.160;2022-07-23T18:28:13;22.80;99.90
12771;DHT22;6449;47.666;9.160;2022-07-23T18:33:08;22.80;99.90
12771;DHT22;6449;47.666;9.160;2022-07-23T18:38:03;22.80;99.90
12771;DHT22;6449;47.666;9.160;2022-07-23T18:42:56;22.90;99.90
12771;DHT22;6449;47.666;9.160;2022-07-23T18:47:53;22.90;99.90
12771;DHT22;6449;47.666;9.160;2022-07-23T18:52:53;22.90;99.90
12771;DHT22;6449;47.666;9.160;2022-07-23T18:57:48;22.90;99.90
12771;DHT22;6449;47.666;9.160;2022-07-23T19:02:42;22.80;99.90
12771;DHT22;6449;47.666;9.160;2022-07-23T19:07:36;22.80;99.90
12771;DHT22;6449;47.666;9.160;2022-07-23T19:12:30;22.80;99.90
12771;DHT22;6449;47.666;9.160;2022-07-23T19:17:25;22.70;99.90
12771;DHT22;6449;47.666;9.160;2022-07-23T19:22:18;22.70;99.90
12771;DHT22;6449;47.666;9.160;2022-07-23T19:27:12;22.80;99.90
12771;DHT22;6449;47.666;9.160;2022-07-23T19:32:06;22.80;99.90
12771;DHT22;6449;47.666;9.160;2022-07-23T19:42:05;22.80;99.90
12771;DHT22;6449;47.666;9.160;2022-07-23T19:47:30;22.80;99.90
12771;DHT22;6449;47.666;9.160;2022-07-23T19:52:24;22.80;99.90
12771;DHT22;6449;47.666;9.160;2022-07-23T19:57:19;22.80;99.90
12771;DHT22;6449;47.666;9.160;2022-07-23T20:02:14;22.80;99.90
12771;DHT22;6449;47.666;9.160;2022-07-23T20:07:08;22.70;99.90
12771;DHT22;6449;47.666;9.160;2022-07-23T20:12:03;22.70;99.90
12771;DHT22;6449;47.666;9.160;2022-07-23T20:17:01;22.70;99.90
12771;DHT22;6449;47.666;9.160;2022-07-23T20:21:58;22.60;99.90
12771;DHT22;6449;47.666;9.160;2022-07-23T20:26:52;22.60;99.90
12771;DHT22;6449;47.666;9.160;2022-07-23T20:31:47;22.50;99.90
12771;DHT22;6449;47.666;9.160;2022-07-23T20:36:43;22.50;99.90
12771;DHT22;6449;47.666;9.160;2022-07-23T20:41:41;22.50;99.90
12771;DHT22;6449;47.666;9.160;2022-07-23T20:46:35;22.40;99.90
12771;DHT22;6449;47.666;9.160;2022-07-23T20:51:29;22.40;99.90
12771;DHT22;6449;47.666;9.160;2022-07-23T21:07:25;22.50;99.90
